Time;durP1;ratioP1;P1;durP2;ratioP2;P2;SDS_P1;SDS_P2;PMS_P1;PMS_P2;Temp;Humidity;BMP_temperature;BMP_pressure;BME280_temperature;BME280_humidity;BME280_pressure;Samples;Min_cycle;Max_cycle;Signal;HPM_P1;HPM_P2
2021/12/26 00:01:54;;;;;;;71.97;56.17;;;13.80;54.40;;;;;;5090609;29;20127;-29
2021/12/26 00:04:25;;;;;;;69.07;41.27;;;13.80;54.30;;;;;;5107782;29;20587;-28
2021/12/26 00:06:56;;;;;;;194.40;100.60;;;13.80;54.30;;;;;;5107493;29;20051;-29
2021/12/26 00:09:27;;;;;;;270.93;116.37;;;13.70;54.20;;;;;;5106464;29;20524;-30
2021/12/26 00:11:58;;;;;;;144.50;60.53;;;13.70;54.20;;;;;;5105913;29;20051;-30
2021/12/26 00:14:29;;;;;;;166.10;67.43;;;13.70;54.30;;;;;;5108102;29;20052;-31
2021/12/26 00:17:01;;;;;;;86.20;38.73;;;13.60;54.20;;;;;;5107055;29;20095;-30
2021/12/26 00:19:32;;;;;;;87.03;42.30;;;13.60;54.20;;;;;;5106253;29;20051;-29
2021/12/26 00:22:03;;;;;;;81.57;40.60;;;13.60;54.10;;;;;;5107928;29;20043;-31
2021/12/26 00:24:35;;;;;;;118.47;51.17;;;13.60;54.00;;;;;;5106559;29;20110;-29
2021/12/26 00:27:06;;;;;;;64.50;34.50;;;13.50;54.00;;;;;;5105980;29;20079;-29
2021/12/26 00:29:37;;;;;;;62.27;34.53;;;13.50;54.00;;;;;;5107918;29;20078;-29
2021/12/26 00:32:08;;;;;;;59.83;34.47;;;13.50;54.10;;;;;;5107002;29;20040;-29
2021/12/26 00:34:39;;;;;;;43.90;27.77;;;13.50;54.00;;;;;;5107365;29;20043;-29
2021/12/26 00:37:11;;;;;;;50.80;30.57;;;13.40;54.10;;;;;;5107281;29;20086;-29
2021/12/26 00:39:43;;;;;;;45.28;26.67;;;13.40;53.90;;;;;;5107322;29;20075;-29
2021/12/26 00:42:15;;;;;;;49.72;29.23;;;13.40;53.90;;;;;;5105988;29;20496;-30
2021/12/26 00:44:46;;;;;;;50.87;31.03;;;13.40;53.80;;;;;;5106903;29;20138;-29
2021/12/26 00:47:17;;;;;;;42.63;27.33;;;13.30;54.10;;;;;;5106757;29;20146;-30
2021/12/26 00:49:48;;;;;;;52.53;31.40;;;13.30;54.20;;;;;;5105972;29;20137;-30
2021/12/26 00:52:19;;;;;;;60.67;38.80;;;13.20;55.60;;;;;;5096987;29;20051;-31
2021/12/26 00:54:50;;;;;;;55.63;33.97;;;13.20;56.10;;;;;;5086772;29;20044;-31
2021/12/26 00:57:21;;;;;;;69.43;40.80;;;13.30;55.80;;;;;;5101800;29;20056;-30
2021/12/26 00:59:52;;;;;;;59.97;35.80;;;13.30;55.60;;;;;;5086582;29;20070;-30
2021/12/26 01:02:23;;;;;;;37.57;24.97;;;13.30;55.00;;;;;;5087121;29;20067;-31
2021/12/26 01:04:54;;;;;;;33.10;21.73;;;13.20;54.80;;;;;;5086279;29;20152;-31
2021/12/26 01:10:19;;;;;;;44.20;28.10;;;13.20;54.40;;;;;;5065154;29;20056;-29
2021/12/26 01:12:51;;;;;;;144.40;91.17;;;13.20;54.10;;;;;;5065835;29;20551;-29
2021/12/26 01:15:23;;;;;;;193.07;113.00;;;13.20;54.40;;;;;;5049604;29;20061;-30
2021/12/26 01:17:57;;;;;;;207.13;116.67;;;13.20;54.10;;;;;;5049925;29;20535;-29
2021/12/26 01:20:45;;;;;;;155.07;83.17;;;13.10;53.80;;;;;;5049726;29;20057;-32
2021/12/26 01:23:17;;;;;;;151.87;82.07;;;13.10;53.90;;;;;;5065207;29;20056;-31
2021/12/26 01:25:48;;;;;;;149.43;80.53;;;13.10;53.80;;;;;;5064798;29;20057;-31
2021/12/26 01:28:21;;;;;;;114.73;58.33;;;13.10;53.60;;;;;;5049462;29;20431;-31
2021/12/26 01:30:58;;;;;;;91.80;48.93;;;13.10;53.50;;;;;;5065623;29;20135;-29
2021/12/26 01:33:33;;;;;;;72.07;40.87;;;13.00;53.40;;;;;;5050038;29;20112;-30
2021/12/26 01:36:04;;;;;;;75.77;40.13;;;13.00;53.40;;;;;;5065099;29;20442;-31
2021/12/26 01:38:35;;;;;;;72.30;39.57;;;13.00;53.00;;;;;;5065043;29;20507;-30
2021/12/26 01:41:09;;;;;;;67.40;35.10;;;13.00;52.90;;;;;;5050129;29;20057;-31
2021/12/26 01:43:42;;;;;;;54.27;31.20;;;13.00;52.80;;;;;;5050121;29;20083;-29
2021/12/26 01:46:14;;;;;;;39.97;24.53;;;13.00;52.90;;;;;;5066420;29;20483;-29
2021/12/26 01:48:45;;;;;;;36.20;24.10;;;12.90;52.90;;;;;;5085808;29;20051;-32
2021/12/26 01:51:16;;;;;;;35.00;22.83;;;12.90;52.90;;;;;;5087156;29;20455;-32
2021/12/26 01:53:47;;;;;;;33.90;21.70;;;12.90;52.90;;;;;;5086923;29;20048;-31
2021/12/26 01:56:18;;;;;;;32.40;21.73;;;12.90;53.00;;;;;;5086416;29;20498;-32
2021/12/26 01:58:49;;;;;;;36.87;23.17;;;12.90;52.90;;;;;;5086375;29;20051;-32
2021/12/26 02:01:20;;;;;;;43.30;27.27;;;12.90;52.80;;;;;;5085951;29;20044;-31
2021/12/26 02:03:51;;;;;;;51.47;31.80;;;12.90;53.40;;;;;;5084600;29;20123;-31
2021/12/26 02:06:22;;;;;;;50.77;31.57;;;12.90;52.80;;;;;;5088295;29;20123;-30
2021/12/26 02:08:53;;;;;;;59.67;36.53;;;12.90;52.80;;;;;;5090417;29;20050;-31
2021/12/26 02:11:24;;;;;;;43.57;27.80;;;12.80;52.80;;;;;;5090183;29;20048;-31
2021/12/26 02:13:55;;;;;;;51.47;32.23;;;12.80;52.70;;;;;;5089562;29;20044;-29
2021/12/26 02:16:26;;;;;;;52.73;33.43;;;12.80;52.70;;;;;;5089242;29;20127;-30
2021/12/26 02:18:57;;;;;;;330.23;204.70;;;12.80;52.80;;;;;;5088641;29;20052;-29
2021/12/26 02:24:29;;;;;;;152.03;83.93;;;12.80;52.70;;;;;;5107819;29;20087;-31
2021/12/26 02:29:50;;;;;;;150.13;81.63;;;12.80;52.50;;;;;;5107608;29;20395;-29
2021/12/26 02:32:20;;;;;;;137.43;77.50;;;12.70;52.30;;;;;;5091556;29;20182;-31
2021/12/26 02:34:51;;;;;;;128.10;71.87;;;12.70;52.80;;;;;;5107387;29;20135;-31
2021/12/26 02:37:22;;;;;;;98.67;56.37;;;12.70;54.30;;;;;;5107391;29;20147;-29
2021/12/26 02:39:53;;;;;;;82.43;49.30;;;12.70;54.60;;;;;;5107876;29;20160;-29
2021/12/26 02:42:25;;;;;;;76.57;46.10;;;12.70;54.20;;;;;;5107310;29;20153;-31
2021/12/26 02:44:56;;;;;;;50.87;31.30;;;12.70;53.90;;;;;;5107119;29;20087;-31
2021/12/26 02:47:34;;;;;;;52.73;33.73;;;12.70;53.40;;;;;;5106930;29;20537;-32
2021/12/26 02:50:12;;;;;;;47.27;30.70;;;12.70;53.20;;;;;;5107167;29;20130;-31
2021/12/26 02:52:43;;;;;;;51.30;32.93;;;12.70;53.10;;;;;;5106996;29;20224;-29
2021/12/26 02:55:16;;;;;;;49.63;31.80;;;12.70;52.80;;;;;;5107047;29;20051;-30
2021/12/26 02:57:48;;;;;;;45.50;27.77;;;12.70;53.00;;;;;;5075077;29;20059;-29
2021/12/26 03:00:21;;;;;;;41.40;26.60;;;12.70;53.20;;;;;;5103394;29;20079;-30
2021/12/26 03:02:53;;;;;;;;;;;12.70;52.50;;;;;;5089763;29;20056;-30
2021/12/26 03:05:28;;;;;;;36.90;22.97;;;12.70;52.40;;;;;;5088944;29;19923;-31
2021/12/26 03:07:59;;;;;;;32.43;21.50;;;12.70;52.50;;;;;;5088089;29;20051;-30
2021/12/26 03:10:30;;;;;;;29.43;19.90;;;12.70;52.40;;;;;;5103667;29;20044;-31
2021/12/26 03:13:04;;;;;;;33.93;20.47;;;12.70;52.10;;;;;;5087012;29;20562;-29
2021/12/26 03:15:36;;;;;;;29.83;20.73;;;12.70;52.20;;;;;;5087464;29;20044;-29
2021/12/26 03:18:07;;;;;;;27.80;18.43;;;12.70;52.10;;;;;;5088640;29;20044;-30
2021/12/26 03:20:42;;;;;;;27.03;18.23;;;12.60;52.10;;;;;;5087917;29;20056;-31
2021/12/26 03:23:15;;;;;;;29.40;18.70;;;12.60;52.00;;;;;;5088347;29;20051;-29
2021/12/26 03:25:47;;;;;;;31.20;19.50;;;12.60;52.00;;;;;;5088880;29;20051;-31
2021/12/26 03:28:18;;;;;;;27.00;18.43;;;12.60;52.00;;;;;;5087034;29;20088;-32
2021/12/26 03:30:51;;;;;;;28.70;19.33;;;12.60;52.00;;;;;;5088778;29;20068;-29
2021/12/26 03:33:22;;;;;;;31.08;21.50;;;12.60;51.90;;;;;;5087572;29;20068;-31
2021/12/26 03:35:53;;;;;;;27.53;19.67;;;12.60;52.00;;;;;;5088208;29;20134;-29
2021/12/26 03:38:24;;;;;;;30.73;21.13;;;12.60;51.80;;;;;;5088331;29;20134;-31
2021/12/26 03:40:57;;;;;;;33.00;21.83;;;12.60;52.00;;;;;;5087130;29;20607;-31
2021/12/26 03:43:28;;;;;;;30.10;19.90;;;12.60;52.10;;;;;;5088550;29;20059;-30
2021/12/26 03:45:59;;;;;;;26.93;18.07;;;12.60;51.80;;;;;;5088661;29;20056;-29
2021/12/26 03:48:30;;;;;;;30.67;19.23;;;12.60;51.80;;;;;;5087946;29;20051;-29
2021/12/26 03:51:03;;;;;;;29.17;18.57;;;12.60;52.10;;;;;;5088879;29;20111;-29
2021/12/26 03:53:34;;;;;;;;;;;12.60;52.00;;;;;;5089140;29;20148;-29
2021/12/26 03:56:05;;;;;;;24.83;16.47;;;12.60;52.00;;;;;;5089079;29;20250;-30
2021/12/26 03:58:38;;;;;;;24.63;17.23;;;12.60;52.00;;;;;;5088339;29;20104;-30
2021/12/26 04:01:09;;;;;;;25.40;16.88;;;12.50;52.10;;;;;;5088182;29;20121;-30
2021/12/26 04:03:40;;;;;;;26.13;18.10;;;12.50;52.00;;;;;;5088328;29;20122;-30
2021/12/26 04:06:11;;;;;;;28.30;18.40;;;12.50;52.10;;;;;;5088200;29;20079;-30
2021/12/26 04:08:42;;;;;;;24.33;16.60;;;12.50;52.00;;;;;;5087993;29;20075;-32
2021/12/26 04:11:13;;;;;;;30.30;19.83;;;12.50;52.10;;;;;;5088744;29;20391;-31
2021/12/26 04:13:44;;;;;;;24.53;19.50;;;12.50;52.10;;;;;;5088045;29;20048;-31
2021/12/26 04:16:15;;;;;;;25.67;17.80;;;12.50;52.00;;;;;;5087942;29;20055;-30
2021/12/26 04:18:46;;;;;;;35.40;21.97;;;12.50;52.00;;;;;;5086868;29;20506;-29
2021/12/26 04:21:17;;;;;;;30.00;20.17;;;12.40;52.70;;;;;;5087982;29;20051;-32
2021/12/26 04:23:48;;;;;;;39.37;29.20;;;12.40;52.50;;;;;;5088284;29;20557;-30
2021/12/26 04:26:19;;;;;;;31.40;22.90;;;12.40;53.80;;;;;;5086779;29;20075;-31
2021/12/26 04:28:50;;;;;;;34.43;25.17;;;12.40;53.50;;;;;;5087647;29;20076;-31
2021/12/26 04:31:21;;;;;;;33.00;23.17;;;12.40;53.10;;;;;;5086463;29;20071;-30
2021/12/26 04:33:52;;;;;;;46.10;32.97;;;12.50;52.90;;;;;;5087187;29;20067;-31
2021/12/26 04:36:23;;;;;;;58.53;37.97;;;12.50;52.70;;;;;;5086527;29;20372;-32
2021/12/26 04:38:54;;;;;;;45.00;28.30;;;12.50;52.60;;;;;;5087882;29;20059;-31
2021/12/26 04:41:25;;;;;;;60.07;38.97;;;12.50;52.70;;;;;;5087647;29;20427;-30
2021/12/26 04:43:56;;;;;;;53.60;32.57;;;12.50;52.60;;;;;;5087554;29;20051;-29
2021/12/26 04:46:27;;;;;;;50.90;31.83;;;12.50;52.60;;;;;;5086571;29;20135;-32
2021/12/26 04:48:58;;;;;;;45.27;28.60;;;12.50;52.50;;;;;;5086381;29;20541;-30
2021/12/26 04:51:29;;;;;;;39.63;24.63;;;12.50;52.40;;;;;;5087308;29;20119;-32
2021/12/26 04:53:59;;;;;;;31.37;20.80;;;12.50;52.30;;;;;;5087484;29;20048;-31
2021/12/26 04:56:31;;;;;;;28.90;21.27;;;12.50;52.50;;;;;;5086892;29;20139;-30
2021/12/26 04:59:02;;;;;;;31.53;21.70;;;12.50;52.40;;;;;;5087434;29;20132;-30
2021/12/26 05:01:34;;;;;;;28.77;21.40;;;12.50;52.40;;;;;;5086938;29;20084;-30
2021/12/26 05:04:06;;;;;;;30.13;20.35;;;12.50;52.30;;;;;;5087991;29;20574;-31
2021/12/26 05:06:38;;;;;;;29.93;20.17;;;12.40;52.20;;;;;;5087524;29;20546;-32
2021/12/26 05:09:09;;;;;;;25.60;17.17;;;12.50;52.00;;;;;;5086256;29;20052;-32
2021/12/26 05:11:41;;;;;;;27.90;19.30;;;12.50;52.00;;;;;;5087384;29;20048;-29
2021/12/26 05:14:11;;;;;;;27.83;18.80;;;12.40;51.80;;;;;;5087097;29;20048;-29
2021/12/26 05:16:43;;;;;;;31.17;19.70;;;12.40;51.80;;;;;;5092050;29;20051;-31
2021/12/26 05:19:13;;;;;;;30.50;20.37;;;12.40;51.80;;;;;;5106806;29;20055;-30
2021/12/26 05:21:45;;;;;;;29.87;19.47;;;12.40;52.10;;;;;;5106840;29;20052;-31
2021/12/26 05:24:15;;;;;;;30.30;20.03;;;12.30;52.10;;;;;;5107022;29;20371;-29
2021/12/26 05:26:46;;;;;;;32.43;20.47;;;12.30;52.00;;;;;;5106629;29;20055;-31
2021/12/26 05:29:17;;;;;;;32.23;22.03;;;12.30;51.90;;;;;;5106570;29;20405;-29
2021/12/26 05:31:48;;;;;;;31.07;21.50;;;12.30;52.00;;;;;;5106487;29;20079;-31
2021/12/26 05:34:20;;;;;;;32.23;20.50;;;12.30;52.00;;;;;;5105582;29;20196;-31
2021/12/26 05:36:51;;;;;;;30.80;20.40;;;12.30;52.10;;;;;;5096249;29;20071;-31
2021/12/26 05:39:22;;;;;;;33.73;19.23;;;12.30;52.20;;;;;;5104774;29;20450;-28
2021/12/26 05:41:53;;;;;;;34.50;21.37;;;12.30;52.80;;;;;;5110795;29;20071;-31
2021/12/26 05:44:23;;;;;;;35.93;20.80;;;12.30;52.80;;;;;;5110568;29;20063;-29
2021/12/26 05:46:54;;;;;;;33.37;21.33;;;12.20;52.80;;;;;;5110586;29;20103;-29
2021/12/26 05:49:27;;;;;;;34.83;21.77;;;12.20;53.00;;;;;;5110445;29;20056;-31
2021/12/26 05:51:58;;;;;;;;;;;12.20;52.90;;;;;;5111256;29;20070;-31
2021/12/26 05:54:29;;;;;;;31.73;19.17;;;12.20;52.80;;;;;;5125354;29;20392;-31
2021/12/26 05:57:02;;;;;;;35.70;21.30;;;12.20;53.00;;;;;;5109472;29;20134;-30
2021/12/26 05:59:33;;;;;;;29.83;19.08;;;12.20;53.00;;;;;;5109216;29;20118;-31
2021/12/26 06:02:04;;;;;;;28.27;19.97;;;12.20;53.10;;;;;;5109714;29;20059;-30
2021/12/26 06:04:35;;;;;;;30.50;19.67;;;12.10;53.10;;;;;;5110247;29;20043;-30
2021/12/26 06:07:06;;;;;;;31.00;19.50;;;12.10;53.10;;;;;;5110171;29;20182;-29
2021/12/26 06:09:37;;;;;;;31.67;21.73;;;12.10;53.10;;;;;;5110444;29;20127;-29
2021/12/26 06:12:08;;;;;;;30.10;20.90;;;12.10;53.20;;;;;;5110174;29;20126;-29
2021/12/26 06:14:39;;;;;;;27.83;19.30;;;12.10;53.10;;;;;;5110342;29;20054;-31
2021/12/26 06:17:10;;;;;;;29.43;21.43;;;12.10;53.30;;;;;;5093407;29;20098;-30
2021/12/26 06:19:41;;;;;;;32.07;20.50;;;12.10;53.40;;;;;;5109975;29;20048;-31
2021/12/26 06:22:12;;;;;;;32.33;21.87;;;12.10;53.20;;;;;;5110228;29;20050;-29
2021/12/26 06:24:43;;;;;;;31.10;20.83;;;12.10;53.20;;;;;;5105525;29;20050;-30
2021/12/26 06:27:14;;;;;;;33.53;21.90;;;12.10;53.20;;;;;;5103396;29;20122;-31
2021/12/26 06:29:45;;;;;;;29.07;20.93;;;12.10;53.40;;;;;;5106929;29;20052;-30
2021/12/26 06:32:16;;;;;;;32.60;21.57;;;12.10;53.50;;;;;;5110424;29;20048;-31
2021/12/26 06:34:47;;;;;;;32.83;22.37;;;12.20;53.40;;;;;;5107605;29;20055;-29
2021/12/26 06:37:18;;;;;;;30.43;21.03;;;12.20;53.30;;;;;;5107035;29;20058;-29
2021/12/26 06:39:49;;;;;;;29.93;22.10;;;12.30;53.10;;;;;;5107660;29;20044;-31
2021/12/26 06:42:20;;;;;;;33.40;23.07;;;12.30;52.90;;;;;;5107103;29;20048;-30
2021/12/26 06:44:51;;;;;;;34.87;23.70;;;12.40;53.00;;;;;;5102351;29;20509;-31
2021/12/26 06:47:23;;;;;;;34.57;26.60;;;12.40;52.80;;;;;;5101164;29;20066;-30
2021/12/26 06:49:53;;;;;;;44.17;29.20;;;12.40;52.80;;;;;;5084827;29;20087;-29
2021/12/26 06:52:25;;;;;;;34.53;25.33;;;12.40;52.60;;;;;;5068226;29;20067;-31
2021/12/26 06:54:55;;;;;;;35.70;25.97;;;12.40;52.70;;;;;;5084889;29;20394;-31
2021/12/26 06:57:26;;;;;;;31.47;23.60;;;12.40;52.60;;;;;;5084825;29;20059;-29
2021/12/26 06:59:57;;;;;;;31.83;22.70;;;12.40;52.80;;;;;;5069261;29;20425;-29
2021/12/26 07:02:28;;;;;;;34.80;23.87;;;12.40;52.90;;;;;;5084201;29;20127;-29
2021/12/26 07:04:59;;;;;;;37.53;25.23;;;12.40;52.60;;;;;;5083842;29;20135;-28
2021/12/26 07:07:31;;;;;;;46.87;35.97;;;12.50;52.70;;;;;;5073092;29;20044;-28
2021/12/26 07:10:02;;;;;;;43.37;33.70;;;12.50;52.50;;;;;;5070163;29;20061;-30
2021/12/26 07:12:33;;;;;;;36.93;25.93;;;12.50;52.60;;;;;;5068956;29;20084;-29
2021/12/26 07:15:04;;;;;;;39.60;26.30;;;12.50;52.60;;;;;;5067264;29;20080;-30
2021/12/26 07:17:35;;;;;;;40.90;29.40;;;12.50;52.70;;;;;;5069483;29;20064;-30
2021/12/26 07:20:08;;;;;;;45.03;29.13;;;12.60;52.50;;;;;;5065431;29;20052;-30
2021/12/26 07:22:40;;;;;;;45.10;30.20;;;12.60;52.40;;;;;;5105264;29;20040;-29
2021/12/26 07:25:10;;;;;;;41.30;28.70;;;12.70;52.50;;;;;;5105153;29;20476;-31
2021/12/26 07:27:41;;;;;;;43.70;31.53;;;12.80;52.90;;;;;;5106592;29;20060;-29
2021/12/26 07:30:12;;;;;;;36.77;25.57;;;12.80;51.90;;;;;;5105444;29;20075;-29
2021/12/26 07:32:43;;;;;;;42.77;28.20;;;12.90;51.90;;;;;;5105071;29;20454;-29
2021/12/26 07:35:14;;;;;;;35.00;27.00;;;12.90;52.10;;;;;;5105247;29;20086;-30
2021/12/26 07:38:04;;;;;;;31.90;21.60;;;13.00;52.00;;;;;;5107606;29;20426;-30
2021/12/26 07:40:35;;;;;;;38.00;29.87;;;13.00;52.10;;;;;;5092956;28;20095;-30
2021/12/26 07:43:07;;;;;;;44.87;33.43;;;13.10;52.00;;;;;;5112509;29;20421;-29
2021/12/26 07:45:37;;;;;;;55.87;37.50;;;13.10;51.90;;;;;;5108007;29;20043;-29
2021/12/26 07:48:08;;;;;;;57.33;40.93;;;13.20;52.00;;;;;;5108729;29;20098;-29
2021/12/26 07:50:39;;;;;;;55.60;38.27;;;13.20;51.80;;;;;;5108063;29;20040;-29
2021/12/26 07:53:12;;;;;;;62.40;41.37;;;13.20;51.90;;;;;;5107985;29;20079;-29
2021/12/26 07:55:42;;;;;;;89.67;64.37;;;13.30;51.70;;;;;;5108456;29;20070;-29
2021/12/26 07:58:15;;;;;;;99.33;62.67;;;13.40;51.80;;;;;;5108040;29;20059;-30
2021/12/26 08:00:46;;;;;;;97.63;52.20;;;13.50;51.90;;;;;;5107861;29;20177;-29
2021/12/26 08:03:17;;;;;;;50.07;33.47;;;13.60;52.10;;;;;;5106525;29;20124;-28
2021/12/26 08:05:48;;;;;;;51.83;32.10;;;13.60;52.40;;;;;;5105966;29;20059;-28
2021/12/26 08:08:19;;;;;;;75.77;49.10;;;13.70;51.10;;;;;;5107747;29;20086;-30
2021/12/26 08:10:50;;;;;;;71.03;45.73;;;13.70;50.90;;;;;;5106357;29;20071;-30
2021/12/26 08:13:21;;;;;;;61.30;39.40;;;13.80;51.10;;;;;;5107811;29;20142;-29
2021/12/26 08:15:52;;;;;;;77.43;53.07;;;13.80;51.10;;;;;;5107608;29;20389;-30
2021/12/26 08:18:23;;;;;;;53.43;36.93;;;13.80;51.10;;;;;;5089935;29;20071;-29
2021/12/26 08:20:54;;;;;;;57.80;38.17;;;13.80;51.70;;;;;;5107048;28;20070;-30
2021/12/26 08:23:26;;;;;;;45.00;31.97;;;13.70;51.20;;;;;;5107455;29;20043;-30
2021/12/26 08:25:57;;;;;;;;;;;13.10;50.90;;;;;;5108481;29;20047;-29
2021/12/26 08:28:28;;;;;;;52.80;35.17;;;10.50;53.50;;;;;;5108098;29;19977;-28
2021/12/26 08:31:00;;;;;;;51.60;34.77;;;8.90;56.30;;;;;;5107713;29;20478;-28
2021/12/26 08:33:31;;;;;;;45.17;26.67;;;8.00;57.80;;;;;;5107332;29;20047;-29
2021/12/26 08:36:03;;;;;;;43.17;28.70;;;7.40;58.80;;;;;;5103959;29;20816;-29
2021/12/26 08:38:34;;;;;;;75.57;44.53;;;7.20;60.20;;;;;;5104976;29;20167;-28
2021/12/26 08:41:05;;;;;;;75.57;42.57;;;8.10;59.80;;;;;;5088090;29;20123;-29
2021/12/26 08:43:36;;;;;;;;;;;9.00;58.60;;;;;;5105761;29;20482;-30
2021/12/26 08:46:06;;;;;;;;;;;9.80;57.50;;;;;;5105259;29;19968;-30
2021/12/26 08:48:38;;;;;;;67.53;40.53;;;10.40;56.70;;;;;;5102480;29;19922;-30
2021/12/26 08:51:08;;;;;;;;;;;10.90;56.00;;;;;;5104281;29;20059;-31
2021/12/26 08:53:40;;;;;;;55.33;34.47;;;11.20;55.50;;;;;;5104001;29;20281;-30
2021/12/26 08:56:10;;;;;;;47.87;31.57;;;11.50;55.30;;;;;;5104389;29;20102;-30
2021/12/26 08:58:41;;;;;;;56.83;37.10;;;11.70;55.10;;;;;;5094984;29;20082;-31
2021/12/26 09:01:12;;;;;;;54.47;34.57;;;11.80;54.60;;;;;;5098812;29;20075;-30
2021/12/26 09:03:43;;;;;;;57.20;37.07;;;12.00;54.50;;;;;;5104581;29;20054;-29
2021/12/26 09:06:14;;;;;;;50.33;32.13;;;12.10;54.50;;;;;;5104082;29;20047;-31
2021/12/26 09:08:45;;;;;;;51.97;33.40;;;12.10;54.40;;;;;;5104447;29;20047;-29
2021/12/26 09:11:16;;;;;;;52.33;39.40;;;12.20;54.30;;;;;;5104136;29;20059;-30
2021/12/26 09:13:48;;;;;;;53.03;36.70;;;12.30;54.50;;;;;;5103678;29;20055;-30
2021/12/26 09:16:19;;;;;;;45.57;31.90;;;12.30;54.50;;;;;;5102811;29;20075;-29
2021/12/26 09:18:50;;;;;;;45.13;30.77;;;12.30;54.60;;;;;;5104349;29;20581;-31
2021/12/26 09:21:21;;;;;;;44.13;32.47;;;12.40;54.70;;;;;;5102871;29;20573;-29
2021/12/26 09:23:52;;;;;;;41.50;29.70;;;12.40;54.50;;;;;;5104179;29;20044;-28
2021/12/26 09:26:23;;;;;;;40.40;27.93;;;12.40;54.40;;;;;;5103844;29;20051;-30
2021/12/26 09:28:54;;;;;;;43.63;28.37;;;12.40;54.30;;;;;;5103205;29;20456;-30
2021/12/26 09:31:26;;;;;;;44.37;31.47;;;12.40;54.40;;;;;;5104235;29;20127;-31
2021/12/26 09:33:57;;;;;;;40.33;28.83;;;12.40;54.30;;;;;;5104321;29;20060;-30
2021/12/26 09:36:28;;;;;;;39.90;27.20;;;12.40;54.50;;;;;;5103833;29;20044;-29
2021/12/26 09:38:59;;;;;;;44.70;28.73;;;12.40;54.50;;;;;;5104317;29;20040;-29
2021/12/26 09:41:30;;;;;;;41.10;29.27;;;12.50;54.50;;;;;;5103981;29;20410;-30
2021/12/26 09:44:01;;;;;;;42.47;30.43;;;12.50;54.60;;;;;;5104095;29;20478;-31
2021/12/26 09:46:32;;;;;;;60.97;39.57;;;12.50;54.80;;;;;;5099009;29;20104;-29
2021/12/26 09:49:04;;;;;;;50.10;33.73;;;12.50;54.80;;;;;;5103263;29;20050;-29
2021/12/26 09:51:35;;;;;;;46.47;32.37;;;12.50;54.70;;;;;;5102969;29;20051;-30
2021/12/26 09:54:06;;;;;;;45.67;31.53;;;12.40;54.70;;;;;;5104125;29;20043;-29
2021/12/26 09:56:37;;;;;;;109.60;65.53;;;12.50;55.00;;;;;;5101322;29;20087;-30
2021/12/26 09:59:16;;;;;;;92.47;57.03;;;12.50;55.00;;;;;;5098791;29;20157;-30
2021/12/26 10:01:52;;;;;;;77.87;45.50;;;12.50;55.00;;;;;;5086435;29;20074;-29
2021/12/26 10:04:24;;;;;;;77.33;45.93;;;12.50;55.10;;;;;;5104693;29;20052;-30
2021/12/26 10:07:11;;;;;;;84.90;47.67;;;12.40;55.30;;;;;;5105005;29;20102;-30
2021/12/26 10:09:46;;;;;;;96.30;60.37;;;12.40;55.10;;;;;;5085721;29;20056;-29
2021/12/26 10:12:19;;;;;;;66.37;44.70;;;12.40;55.00;;;;;;5086405;29;20487;-31
2021/12/26 10:14:53;;;;;;;63.90;44.30;;;12.40;55.20;;;;;;5085492;29;20047;-30
2021/12/26 10:17:26;;;;;;;71.22;46.58;;;12.40;55.90;;;;;;5085399;29;20411;-29
2021/12/26 10:20:23;;;;;;;72.77;47.33;;;12.40;55.30;;;;;;5086343;29;20104;-30
2021/12/26 10:23:16;;;;;;;66.57;43.17;;;12.50;56.10;;;;;;5062135;29;20418;-31
2021/12/26 10:25:47;;;;;;;69.17;44.50;;;12.50;55.40;;;;;;5054349;29;20048;-29
2021/12/26 10:28:18;;;;;;;64.47;42.80;;;12.60;55.30;;;;;;5072158;29;20088;-30
2021/12/26 10:30:49;;;;;;;72.70;43.27;;;12.70;55.40;;;;;;5087838;29;20058;-30
2021/12/26 10:33:20;;;;;;;61.67;40.27;;;12.80;55.60;;;;;;5072054;29;20068;-30
2021/12/26 10:35:51;;;;;;;69.20;42.93;;;12.80;55.50;;;;;;5087760;29;20056;-29
2021/12/26 10:38:22;;;;;;;78.90;49.17;;;12.70;55.50;;;;;;5070885;29;20422;-31
2021/12/26 10:40:53;;;;;;;80.07;51.27;;;12.70;55.40;;;;;;5087560;29;20589;-30
2021/12/26 10:43:24;;;;;;;56.43;38.70;;;12.70;56.20;;;;;;5087498;29;20056;-31
2021/12/26 10:45:55;;;;;;;55.73;38.63;;;12.70;55.70;;;;;;5071958;29;20123;-30
2021/12/26 10:48:26;;;;;;;58.50;40.43;;;12.70;55.80;;;;;;5071849;29;20175;-29
2021/12/26 10:50:57;;;;;;;57.23;42.13;;;12.70;56.10;;;;;;5087566;29;20108;-31
2021/12/26 10:53:28;;;;;;;57.70;38.37;;;12.70;55.90;;;;;;5087462;29;20060;-29
2021/12/26 10:55:59;;;;;;;56.27;36.63;;;12.70;55.90;;;;;;5087711;29;20079;-29
2021/12/26 10:58:35;;;;;;;50.90;35.20;;;12.60;55.90;;;;;;5071701;29;20075;-31
2021/12/26 11:01:07;;;;;;;52.10;35.77;;;12.70;55.80;;;;;;5101440;29;20470;-30
2021/12/26 11:03:38;;;;;;;48.57;32.60;;;12.60;55.90;;;;;;5109092;29;20123;-29
2021/12/26 11:06:12;;;;;;;48.67;34.73;;;12.60;56.20;;;;;;5108746;29;20051;-31
2021/12/26 11:08:43;;;;;;;52.70;34.87;;;12.60;56.10;;;;;;5109145;29;20048;-30
2021/12/26 11:11:19;;;;;;;52.50;36.60;;;12.60;56.30;;;;;;5108853;29;20094;-29
2021/12/26 11:13:51;;;;;;;56.33;39.10;;;12.60;56.20;;;;;;5109161;29;20044;-29
2021/12/26 11:16:22;;;;;;;62.10;40.80;;;12.60;56.20;;;;;;5091882;29;20387;-29
2021/12/26 11:18:53;;;;;;;56.90;37.60;;;12.60;56.20;;;;;;5091956;29;20059;-29
2021/12/26 11:21:25;;;;;;;57.27;38.93;;;12.60;56.20;;;;;;5109026;29;20043;-29
2021/12/26 11:23:55;;;;;;;56.03;38.63;;;12.60;56.30;;;;;;5123380;29;20055;-31
2021/12/26 11:26:27;;;;;;;52.60;38.83;;;12.60;56.30;;;;;;5091574;29;20055;-28
2021/12/26 11:28:57;;;;;;;56.77;40.53;;;12.60;56.60;;;;;;5108627;29;20044;-30
2021/12/26 11:31:30;;;;;;;53.53;40.17;;;12.50;56.20;;;;;;5108661;29;20051;-30
2021/12/26 11:34:04;;;;;;;58.90;41.53;;;12.50;56.20;;;;;;5090435;29;20359;-28
2021/12/26 11:36:35;;;;;;;65.07;41.47;;;12.50;56.00;;;;;;5088673;29;20051;-30
2021/12/26 11:39:07;;;;;;;60.50;40.50;;;12.50;56.30;;;;;;5088648;29;20490;-29
2021/12/26 11:42:04;;;;;;;57.27;39.23;;;12.60;56.30;;;;;;5088741;29;20562;-30
2021/12/26 11:44:58;;;;;;;60.13;41.07;;;12.60;56.10;;;;;;5067227;29;20060;-31
2021/12/26 11:48:25;;;;;;;57.03;40.67;;;12.60;56.20;;;;;;5067101;29;20053;-30
2021/12/26 11:51:57;;;;;;;62.23;43.77;;;12.60;55.60;;;;;;5067219;29;20052;-30
2021/12/26 11:54:52;;;;;;;72.83;49.23;;;12.60;55.50;;;;;;4971778;29;20059;-29
2021/12/26 11:57:44;;;;;;;65.27;45.47;;;12.60;55.40;;;;;;4971592;29;20086;-28
2021/12/26 12:00:29;;;;;;;62.07;44.13;;;12.70;55.50;;;;;;4971305;29;20083;-31
2021/12/26 12:03:03;;;;;;;67.37;45.13;;;12.70;55.50;;;;;;4971119;29;20065;-30
2021/12/26 12:05:41;;;;;;;72.80;48.73;;;12.70;55.50;;;;;;4981865;29;20066;-29
2021/12/26 12:08:33;;;;;;;75.00;49.77;;;12.70;55.60;;;;;;4990082;29;20063;-28
2021/12/26 12:11:20;;;;;;;64.23;43.90;;;12.70;55.80;;;;;;5330094;27;20598;-36
2021/12/26 12:13:53;;;;;;;61.50;44.03;;;12.70;55.80;;;;;;5296202;28;20067;-36
2021/12/26 12:16:23;;;;;;;69.75;47.50;;;12.70;55.80;;;;;;5287861;28;20044;-34
2021/12/26 12:18:57;;;;;;;64.40;47.40;;;12.70;55.70;;;;;;5287744;28;20512;-36
2021/12/26 12:21:46;;;;;;;57.92;41.95;;;12.80;55.60;;;;;;5287663;28;20044;-35
2021/12/26 12:24:18;;;;;;;61.17;43.80;;;12.70;56.00;;;;;;5287988;28;20040;-37
2021/12/26 12:26:56;;;;;;;74.93;53.97;;;12.80;55.90;;;;;;5287554;28;20067;-34
2021/12/26 12:29:28;;;;;;;75.17;54.77;;;12.80;56.60;;;;;;5287398;28;20415;-37
2021/12/26 12:32:08;;;;;;;69.93;49.23;;;12.80;55.80;;;;;;5287221;28;20474;-34
2021/12/26 12:35:01;;;;;;;66.03;46.87;;;12.80;55.90;;;;;;5287993;28;20051;-37
2021/12/26 12:37:41;;;;;;;76.33;52.77;;;12.80;56.00;;;;;;5287474;28;20044;-32
2021/12/26 12:40:30;;;;;;;131.37;87.23;;;12.70;56.10;;;;;;5287832;28;20047;-34
2021/12/26 12:43:12;;;;;;;110.80;71.17;;;12.80;56.30;;;;;;5287241;28;20047;-37
2021/12/26 12:45:52;;;;;;;124.33;85.07;;;12.80;56.30;;;;;;5286925;28;20044;-31
2021/12/26 12:48:40;;;;;;;91.87;65.87;;;12.80;56.50;;;;;;5286983;28;20461;-33
2021/12/26 12:51:15;;;;;;;84.90;54.97;;;12.80;56.40;;;;;;5287107;28;20131;-34
2021/12/26 12:53:55;;;;;;;117.00;70.47;;;12.90;56.20;;;;;;5287234;28;20443;-34
2021/12/26 12:56:30;;;;;;;88.83;56.33;;;12.90;56.00;;;;;;5287152;28;20047;-32
2021/12/26 12:59:13;;;;;;;83.20;52.97;;;12.90;56.20;;;;;;5292133;28;20051;-32
2021/12/26 13:01:56;;;;;;;66.70;43.50;;;12.90;56.20;;;;;;5278184;28;20465;-35
2021/12/26 13:04:29;;;;;;;62.60;41.10;;;13.00;56.00;;;;;;5242340;28;20485;-33
2021/12/26 13:07:01;;;;;;;;;;;13.00;55.70;;;;;;5275229;28;20516;-34